Buford, OH (45110)

2:25 AM EST on January 26, 2015 (GMT -0500)
Hillsboro | Change Station
CLOSE
Current Station
Personal Weather Station
Location: Hillsboro, OH
Elevation: 1102 ft
Nearby Weather Stations

Elev 1102 ft 39.21 °N, 83.60 °W | Updated 3 minutes ago

Snow
Snow
26.8 °F
Feels Like 15 °F
N
14.0
Wind Variable Wind from NE
Gusts 22.0 mph

Today
High -- | Low -- °F
--% Chance of Precip.
Yesterday
High -- | Low -- °F
Precip. -- in
7:46 AM 5:48 PM
Waxing Crescent, 40% visible
Pressure 29.71 in
Visibility 1.8 miles
Clouds Few 900 ft
Overcast 1400 ft
Windchill 15 °F
Dew Point 27 °F
Humidity 99%
Rainfall 0.00 in
Snow Depth Not available.
UV 0 out of 12
Pollen .10 out of 12
Air Quality Not available.
Flu Activity Not available.
SPECI KILN 260712Z AUTO 02015G23KT 1 3/4SM -SN BR FEW009 OVC014 M05/M07 A2971 RMK AO2 P0000 T10501067

More Conditions Fewer Conditions

Pressure 29.71 in
Visibility 1.8 miles
Clouds Few 900 ft
Overcast 1400 ft
Windchill 15 °F
Dew Point 27 °F
Humidity 99%
Rainfall 0.00 in
Snow Depth Not available.
UV 0 out of 12
Pollen .10 out of 12
Air Quality Not available.
Flu Activity Not available.
SPECI KILN 260712Z AUTO 02015G23KT 1 3/4SM -SN BR FEW009 OVC014 M05/M07 A2971 RMK AO2 P0000 T10501067

More Conditions Fewer Conditions

10-Day Weather Forecast

Almanac

Astronomy

Jan. 26, 2015 Rise Set
Actual Time
Civil Twilight
Nautical Twilight
Astronomical Twilight
Moon
Length of Visible Light
Length of Day
Tomorrow will be .
, % of the Moon is Illuminated

Today's Extremes

State Highs State Lows

Community

WunderPhotos

Upload Photos

1,790,155 photos uploaded!

WunderBlogs® & News

Nearby

Air Quality

  Air Quality AQ Index Pollutant
Not available.

Snow Depth

Station Depth Elevation

Earthquake Activity

City Distance Mag. Time & Date
Minimum magnitude displayed is 2.5.

Coastal Water Temperatures

Place Temperature

Nearby Weather Stations